createdAt,value
2022-10-23T00:08:42.598Z,19.29
2022-10-23T00:24:24.708Z,16.9
2022-10-23T00:40:07.315Z,18.1
2022-10-23T00:55:50.151Z,23
2022-10-23T01:11:32.550Z,17.5
2022-10-23T01:27:15.282Z,15.8
2022-10-23T01:42:57.374Z,20.6
2022-10-23T01:58:39.920Z,19.79
2022-10-23T02:14:22.433Z,19.7
2022-10-23T02:30:05.139Z,19.5
2022-10-23T02:45:47.348Z,19.4
2022-10-23T03:01:29.594Z,15.5
2022-10-23T03:17:12.473Z,14.3
2022-10-23T03:32:54.541Z,14.9
2022-10-23T03:48:36.714Z,14.3
2022-10-23T04:04:19.713Z,18.7
2022-10-23T04:20:02.267Z,13.3
2022-10-23T04:35:44.640Z,14.3
2022-10-23T04:51:27.199Z,14.5
2022-10-23T05:07:09.887Z,15.2
2022-10-23T05:22:52.227Z,17.1
2022-10-23T05:38:34.371Z,17.5
2022-10-23T05:54:17.108Z,16.1
2022-10-23T06:09:59.719Z,18.9
2022-10-23T06:25:42.763Z,25.6
2022-10-23T06:41:25.737Z,29.2
2022-10-23T06:57:08.371Z,27.3
2022-10-23T07:12:51.295Z,30
2022-10-23T07:28:34.006Z,28.1
2022-10-23T07:44:16.666Z,24.3
2022-10-23T07:59:58.667Z,11.7
2022-10-23T08:15:40.937Z,9.3
2022-10-23T08:31:23.880Z,9.2
2022-10-23T08:47:06.078Z,9.1
2022-10-23T09:02:48.702Z,7.9
2022-10-23T09:18:30.819Z,9.2
2022-10-23T09:34:13.741Z,9.39
2022-10-23T09:49:55.672Z,7.4
2022-10-23T10:05:37.859Z,8.8
2022-10-23T10:21:20.157Z,7.3
2022-10-23T10:37:02.088Z,9.3
2022-10-23T10:52:44.124Z,7.1
2022-10-23T11:08:26.868Z,6
2022-10-23T11:24:08.950Z,6.5
2022-10-23T11:39:51.398Z,5.7
2022-10-23T11:55:33.607Z,5.3
2022-10-23T12:11:15.595Z,5.3
2022-10-23T12:26:57.939Z,5.8
2022-10-23T12:42:40.698Z,6
2022-10-23T12:58:23.569Z,5.1
2022-10-23T13:14:06.313Z,7.5
2022-10-23T13:14:53.537Z,6.3
2022-10-23T13:30:36.254Z,5.9
2022-10-23T13:46:19.202Z,5.1
2022-10-23T14:02:02.100Z,5.5
2022-10-23T14:17:44.542Z,5.2
2022-10-23T14:33:27.302Z,7
2022-10-23T14:49:09.427Z,5.6
2022-10-23T15:04:51.588Z,6.3
2022-10-23T15:20:34.252Z,7.2
2022-10-23T15:36:17.213Z,6.4
2022-10-23T15:51:59.431Z,7.5
2022-10-23T16:07:42.175Z,9.5
2022-10-23T16:23:24.272Z,11.9
2022-10-23T16:39:06.960Z,11.8
2022-10-23T16:54:49.537Z,10
2022-10-23T17:10:31.873Z,8.5
2022-10-23T17:26:13.913Z,9.89
2022-10-23T17:41:56.455Z,10
2022-10-23T17:57:39.454Z,9.2
2022-10-23T18:13:22.388Z,8.8
2022-10-23T18:29:04.811Z,8
2022-10-23T18:44:47.644Z,8.3
2022-10-23T19:00:30.309Z,9.39
2022-10-23T19:16:13.183Z,9.89
2022-10-23T19:31:55.649Z,9.3
2022-10-23T19:47:38.132Z,10.7
2022-10-23T20:03:20.237Z,9.39
2022-10-23T20:19:03.006Z,10.9
2022-10-23T20:34:45.432Z,9.8
2022-10-23T20:50:28.390Z,12.7
2022-10-23T21:06:11.261Z,10.8
2022-10-23T21:21:54.092Z,10.2
2022-10-23T21:37:36.557Z,11.7
2022-10-23T21:53:18.724Z,12
2022-10-23T22:09:01.533Z,12.6
2022-10-23T22:24:44.498Z,10.6
2022-10-23T22:40:26.842Z,12.3
2022-10-23T22:56:08.998Z,14.8
2022-10-23T23:11:51.350Z,14.4
2022-10-23T23:27:33.948Z,17.9
2022-10-23T23:43:16.602Z,16.79
2022-10-23T23:58:59.464Z,14.5
